sensor_id;sensor_type;location;lat;lon;timestamp;P1;durP1;ratioP1;P2;durP2;ratioP2
21162;SDS011;10739;52.198;20.908;2023-04-08T00:00:52;20.90;;;16.00;;
21162;SDS011;10739;52.198;20.908;2023-04-08T00:03:19;21.05;;;15.82;;
21162;SDS011;10739;52.198;20.908;2023-04-08T00:05:45;21.13;;;15.73;;
21162;SDS011;10739;52.198;20.908;2023-04-08T00:08:12;20.00;;;15.23;;
21162;SDS011;10739;52.198;20.908;2023-04-08T00:10:38;20.65;;;15.65;;
21162;SDS011;10739;52.198;20.908;2023-04-08T00:13:05;21.58;;;15.65;;
21162;SDS011;10739;52.198;20.908;2023-04-08T00:15:31;21.92;;;15.07;;
21162;SDS011;10739;52.198;20.908;2023-04-08T00:17:57;20.27;;;15.20;;
21162;SDS011;10739;52.198;20.908;2023-04-08T00:20:24;19.77;;;15.18;;
21162;SDS011;10739;52.198;20.908;2023-04-08T00:22:50;20.27;;;14.98;;
21162;SDS011;10739;52.198;20.908;2023-04-08T00:25:16;21.95;;;16.17;;
21162;SDS011;10739;52.198;20.908;2023-04-08T00:27:42;21.98;;;16.00;;
21162;SDS011;10739;52.198;20.908;2023-04-08T00:30:09;21.50;;;15.77;;
21162;SDS011;10739;52.198;20.908;2023-04-08T00:32:35;22.80;;;16.17;;
21162;SDS011;10739;52.198;20.908;2023-04-08T00:35:02;21.00;;;15.10;;
21162;SDS011;10739;52.198;20.908;2023-04-08T00:37:29;20.95;;;15.88;;
21162;SDS011;10739;52.198;20.908;2023-04-08T00:39:56;20.88;;;14.77;;
21162;SDS011;10739;52.198;20.908;2023-04-08T00:42:22;21.00;;;15.05;;
21162;SDS011;10739;52.198;20.908;2023-04-08T00:44:48;17.63;;;14.10;;
21162;SDS011;10739;52.198;20.908;2023-04-08T00:47:15;18.50;;;13.77;;
21162;SDS011;10739;52.198;20.908;2023-04-08T00:49:42;18.23;;;14.25;;
21162;SDS011;10739;52.198;20.908;2023-04-08T00:52:08;17.40;;;12.95;;
21162;SDS011;10739;52.198;20.908;2023-04-08T00:54:35;18.70;;;12.88;;
21162;SDS011;10739;52.198;20.908;2023-04-08T00:57:03;17.58;;;12.82;;
21162;SDS011;10739;52.198;20.908;2023-04-08T00:59:30;15.55;;;12.65;;
21162;SDS011;10739;52.198;20.908;2023-04-08T01:02:14;17.05;;;12.80;;
21162;SDS011;10739;52.198;20.908;2023-04-08T01:04:51;16.95;;;13.75;;
21162;SDS011;10739;52.198;20.908;2023-04-08T01:07:33;16.13;;;12.40;;
21162;SDS011;10739;52.198;20.908;2023-04-08T01:10:14;16.95;;;12.75;;
21162;SDS011;10739;52.198;20.908;2023-04-08T01:12:48;16.73;;;11.98;;
21162;SDS011;10739;52.198;20.908;2023-04-08T01:15:19;18.23;;;12.63;;
21162;SDS011;10739;52.198;20.908;2023-04-08T01:17:47;18.30;;;12.85;;
21162;SDS011;10739;52.198;20.908;2023-04-08T01:20:21;15.90;;;12.85;;
21162;SDS011;10739;52.198;20.908;2023-04-08T01:25:55;17.25;;;13.35;;
21162;SDS011;10739;52.198;20.908;2023-04-08T01:28:22;16.42;;;12.77;;
21162;SDS011;10739;52.198;20.908;2023-04-08T01:30:54;15.47;;;12.20;;
21162;SDS011;10739;52.198;20.908;2023-04-08T01:33:24;18.17;;;14.30;;
21162;SDS011;10739;52.198;20.908;2023-04-08T01:35:52;18.77;;;15.15;;
21162;SDS011;10739;52.198;20.908;2023-04-08T01:38:22;19.20;;;14.63;;
21162;SDS011;10739;52.198;20.908;2023-04-08T01:40:51;18.45;;;14.80;;
21162;SDS011;10739;52.198;20.908;2023-04-08T01:43:20;20.33;;;15.38;;
21162;SDS011;10739;52.198;20.908;2023-04-08T01:45:48;19.85;;;15.00;;
21162;SDS011;10739;52.198;20.908;2023-04-08T01:48:18;21.60;;;16.27;;
21162;SDS011;10739;52.198;20.908;2023-04-08T01:50:46;20.58;;;15.35;;
21162;SDS011;10739;52.198;20.908;2023-04-08T01:53:15;20.60;;;15.73;;
21162;SDS011;10739;52.198;20.908;2023-04-08T01:55:42;18.73;;;15.10;;
21162;SDS011;10739;52.198;20.908;2023-04-08T01:58:11;20.27;;;15.82;;
21162;SDS011;10739;52.198;20.908;2023-04-08T02:00:45;18.17;;;14.15;;
21162;SDS011;10739;52.198;20.908;2023-04-08T02:03:13;18.95;;;15.32;;
21162;SDS011;10739;52.198;20.908;2023-04-08T02:05:43;19.63;;;15.43;;
21162;SDS011;10739;52.198;20.908;2023-04-08T02:08:10;21.60;;;14.90;;
21162;SDS011;10739;52.198;20.908;2023-04-08T02:10:37;19.02;;;14.52;;
21162;SDS011;10739;52.198;20.908;2023-04-08T02:13:03;17.83;;;14.27;;
21162;SDS011;10739;52.198;20.908;2023-04-08T02:15:33;19.70;;;15.05;;
21162;SDS011;10739;52.198;20.908;2023-04-08T02:18:24;19.83;;;14.75;;
21162;SDS011;10739;52.198;20.908;2023-04-08T02:21:04;19.60;;;14.77;;
21162;SDS011;10739;52.198;20.908;2023-04-08T02:23:39;19.83;;;15.38;;
21162;SDS011;10739;52.198;20.908;2023-04-08T02:26:13;20.90;;;15.43;;
21162;SDS011;10739;52.198;20.908;2023-04-08T02:28:41;23.17;;;16.33;;
21162;SDS011;10739;52.198;20.908;2023-04-08T02:31:09;21.38;;;14.60;;
21162;SDS011;10739;52.198;20.908;2023-04-08T02:33:38;20.23;;;15.32;;
21162;SDS011;10739;52.198;20.908;2023-04-08T02:36:06;17.90;;;14.73;;
21162;SDS011;10739;52.198;20.908;2023-04-08T02:38:35;20.30;;;15.20;;
21162;SDS011;10739;52.198;20.908;2023-04-08T02:41:01;18.52;;;14.35;;
21162;SDS011;10739;52.198;20.908;2023-04-08T02:43:28;20.60;;;14.95;;
21162;SDS011;10739;52.198;20.908;2023-04-08T02:45:57;19.90;;;14.73;;
21162;SDS011;10739;52.198;20.908;2023-04-08T02:48:27;19.95;;;15.15;;
21162;SDS011;10739;52.198;20.908;2023-04-08T02:50:55;21.15;;;16.02;;
21162;SDS011;10739;52.198;20.908;2023-04-08T02:53:22;21.63;;;15.52;;
21162;SDS011;10739;52.198;20.908;2023-04-08T02:55:49;20.83;;;15.07;;
21162;SDS011;10739;52.198;20.908;2023-04-08T02:58:15;20.73;;;15.40;;
21162;SDS011;10739;52.198;20.908;2023-04-08T03:00:41;17.75;;;14.48;;
21162;SDS011;10739;52.198;20.908;2023-04-08T03:03:07;20.13;;;14.98;;
21162;SDS011;10739;52.198;20.908;2023-04-08T03:05:34;19.48;;;14.80;;
21162;SDS011;10739;52.198;20.908;2023-04-08T03:08:00;19.25;;;14.63;;
21162;SDS011;10739;52.198;20.908;2023-04-08T03:10:26;20.83;;;15.07;;
21162;SDS011;10739;52.198;20.908;2023-04-08T03:12:53;21.60;;;15.75;;
21162;SDS011;10739;52.198;20.908;2023-04-08T03:15:19;21.73;;;15.50;;
21162;SDS011;10739;52.198;20.908;2023-04-08T03:17:45;19.08;;;14.65;;
21162;SDS011;10739;52.198;20.908;2023-04-08T03:20:11;20.80;;;14.68;;
21162;SDS011;10739;52.198;20.908;2023-04-08T03:22:38;21.75;;;15.45;;
21162;SDS011;10739;52.198;20.908;2023-04-08T03:25:04;21.45;;;15.82;;
21162;SDS011;10739;52.198;20.908;2023-04-08T03:27:31;18.35;;;14.05;;
21162;SDS011;10739;52.198;20.908;2023-04-08T03:29:57;16.92;;;13.57;;
21162;SDS011;10739;52.198;20.908;2023-04-08T03:32:23;23.65;;;15.75;;
21162;SDS011;10739;52.198;20.908;2023-04-08T03:34:50;20.48;;;14.82;;
21162;SDS011;10739;52.198;20.908;2023-04-08T03:37:16;21.25;;;16.13;;
21162;SDS011;10739;52.198;20.908;2023-04-08T03:39:43;20.90;;;13.85;;
21162;SDS011;10739;52.198;20.908;2023-04-08T03:42:09;20.35;;;15.02;;
21162;SDS011;10739;52.198;20.908;2023-04-08T03:44:35;20.73;;;15.00;;
21162;SDS011;10739;52.198;20.908;2023-04-08T03:47:01;20.52;;;15.30;;
21162;SDS011;10739;52.198;20.908;2023-04-08T03:49:28;19.05;;;14.18;;
21162;SDS011;10739;52.198;20.908;2023-04-08T03:51:54;20.20;;;14.23;;
21162;SDS011;10739;52.198;20.908;2023-04-08T03:54:21;22.52;;;15.32;;
21162;SDS011;10739;52.198;20.908;2023-04-08T03:56:48;20.25;;;14.25;;
21162;SDS011;10739;52.198;20.908;2023-04-08T03:59:14;19.05;;;14.02;;
21162;SDS011;10739;52.198;20.908;2023-04-08T04:01:41;18.55;;;13.73;;
21162;SDS011;10739;52.198;20.908;2023-04-08T04:04:07;22.73;;;15.13;;
21162;SDS011;10739;52.198;20.908;2023-04-08T04:06:33;21.08;;;14.40;;
21162;SDS011;10739;52.198;20.908;2023-04-08T04:09:00;20.15;;;14.10;;
21162;SDS011;10739;52.198;20.908;2023-04-08T04:11:26;18.40;;;13.68;;
21162;SDS011;10739;52.198;20.908;2023-04-08T04:13:53;22.77;;;14.45;;
21162;SDS011;10739;52.198;20.908;2023-04-08T04:16:19;19.58;;;14.15;;
21162;SDS011;10739;52.198;20.908;2023-04-08T04:18:45;19.65;;;14.40;;
21162;SDS011;10739;52.198;20.908;2023-04-08T04:21:11;20.40;;;14.73;;
21162;SDS011;10739;52.198;20.908;2023-04-08T04:23:37;20.05;;;14.40;;
21162;SDS011;10739;52.198;20.908;2023-04-08T04:26:07;20.50;;;15.25;;
21162;SDS011;10739;52.198;20.908;2023-04-08T04:28:34;22.98;;;14.70;;
21162;SDS011;10739;52.198;20.908;2023-04-08T04:31:01;19.38;;;14.32;;
21162;SDS011;10739;52.198;20.908;2023-04-08T04:33:27;20.83;;;14.77;;
21162;SDS011;10739;52.198;20.908;2023-04-08T04:35:53;21.00;;;14.82;;
21162;SDS011;10739;52.198;20.908;2023-04-08T04:38:20;20.25;;;15.05;;
21162;SDS011;10739;52.198;20.908;2023-04-08T04:40:46;22.98;;;15.10;;
21162;SDS011;10739;52.198;20.908;2023-04-08T04:43:13;20.92;;;15.60;;
21162;SDS011;10739;52.198;20.908;2023-04-08T04:45:39;21.38;;;14.02;;
21162;SDS011;10739;52.198;20.908;2023-04-08T04:48:06;22.13;;;14.70;;
21162;SDS011;10739;52.198;20.908;2023-04-08T04:50:32;24.20;;;15.75;;
21162;SDS011;10739;52.198;20.908;2023-04-08T04:52:58;21.25;;;14.93;;
21162;SDS011;10739;52.198;20.908;2023-04-08T04:55:24;20.23;;;13.90;;
21162;SDS011;10739;52.198;20.908;2023-04-08T04:57:51;19.70;;;14.38;;
21162;SDS011;10739;52.198;20.908;2023-04-08T05:00:17;18.73;;;13.95;;
21162;SDS011;10739;52.198;20.908;2023-04-08T05:02:43;19.33;;;13.57;;
21162;SDS011;10739;52.198;20.908;2023-04-08T05:05:10;19.17;;;13.52;;
21162;SDS011;10739;52.198;20.908;2023-04-08T05:07:37;20.10;;;13.60;;
21162;SDS011;10739;52.198;20.908;2023-04-08T05:10:04;18.27;;;14.07;;
21162;SDS011;10739;52.198;20.908;2023-04-08T05:12:31;18.92;;;12.93;;
21162;SDS011;10739;52.198;20.908;2023-04-08T05:14:57;17.98;;;12.75;;
21162;SDS011;10739;52.198;20.908;2023-04-08T05:17:24;20.60;;;13.80;;
21162;SDS011;10739;52.198;20.908;2023-04-08T05:19:50;16.85;;;12.15;;
21162;SDS011;10739;52.198;20.908;2023-04-08T05:22:17;19.02;;;13.43;;
21162;SDS011;10739;52.198;20.908;2023-04-08T05:24:44;19.13;;;12.55;;
21162;SDS011;10739;52.198;20.908;2023-04-08T05:27:10;17.10;;;12.48;;
21162;SDS011;10739;52.198;20.908;2023-04-08T05:29:36;17.33;;;11.95;;
21162;SDS011;10739;52.198;20.908;2023-04-08T05:32:03;14.43;;;11.32;;
21162;SDS011;10739;52.198;20.908;2023-04-08T05:34:30;19.27;;;10.90;;
21162;SDS011;10739;52.198;20.908;2023-04-08T05:36:56;14.30;;;11.00;;
21162;SDS011;10739;52.198;20.908;2023-04-08T05:39:22;15.52;;;11.60;;
21162;SDS011;10739;52.198;20.908;2023-04-08T05:41:49;15.02;;;11.10;;
21162;SDS011;10739;52.198;20.908;2023-04-08T05:44:15;13.52;;;11.13;;
21162;SDS011;10739;52.198;20.908;2023-04-08T05:46:42;14.63;;;11.13;;
21162;SDS011;10739;52.198;20.908;2023-04-08T05:49:08;14.63;;;11.00;;
21162;SDS011;10739;52.198;20.908;2023-04-08T05:51:34;11.82;;;10.18;;
21162;SDS011;10739;52.198;20.908;2023-04-08T05:54:01;15.05;;;9.88;;
21162;SDS011;10739;52.198;20.908;2023-04-08T05:56:27;14.02;;;10.30;;
21162;SDS011;10739;52.198;20.908;2023-04-08T05:58:53;13.50;;;9.88;;
21162;SDS011;10739;52.198;20.908;2023-04-08T06:01:20;13.50;;;10.25;;
21162;SDS011;10739;52.198;20.908;2023-04-08T06:03:46;15.27;;;10.85;;
21162;SDS011;10739;52.198;20.908;2023-04-08T06:06:12;15.27;;;11.52;;
21162;SDS011;10739;52.198;20.908;2023-04-08T06:08:39;15.52;;;11.45;;
21162;SDS011;10739;52.198;20.908;2023-04-08T06:11:05;15.10;;;10.55;;
21162;SDS011;10739;52.198;20.908;2023-04-08T06:13:32;13.95;;;10.75;;
21162;SDS011;10739;52.198;20.908;2023-04-08T06:15:58;14.75;;;10.77;;
21162;SDS011;10739;52.198;20.908;2023-04-08T06:18:39;14.25;;;9.80;;
21162;SDS011;10739;52.198;20.908;2023-04-08T06:21:06;14.23;;;10.52;;
21162;SDS011;10739;52.198;20.908;2023-04-08T06:23:32;14.18;;;9.48;;
21162;SDS011;10739;52.198;20.908;2023-04-08T06:25:58;15.98;;;10.55;;
21162;SDS011;10739;52.198;20.908;2023-04-08T06:28:25;14.68;;;10.88;;
21162;SDS011;10739;52.198;20.908;2023-04-08T06:30:51;14.07;;;10.45;;
21162;SDS011;10739;52.198;20.908;2023-04-08T06:33:17;13.95;;;10.45;;
21162;SDS011;10739;52.198;20.908;2023-04-08T06:35:44;16.55;;;10.25;;
21162;SDS011;10739;52.198;20.908;2023-04-08T06:38:10;13.93;;;10.63;;
21162;SDS011;10739;52.198;20.908;2023-04-08T06:40:37;14.02;;;10.32;;
21162;SDS011;10739;52.198;20.908;2023-04-08T06:43:05;12.18;;;9.48;;
21162;SDS011;10739;52.198;20.908;2023-04-08T06:45:32;13.25;;;10.35;;
21162;SDS011;10739;52.198;20.908;2023-04-08T06:47:59;15.00;;;10.25;;
21162;SDS011;10739;52.198;20.908;2023-04-08T06:50:25;13.27;;;10.15;;
21162;SDS011;10739;52.198;20.908;2023-04-08T06:52:51;12.13;;;10.07;;
21162;SDS011;10739;52.198;20.908;2023-04-08T06:55:19;13.48;;;10.50;;
21162;SDS011;10739;52.198;20.908;2023-04-08T06:57:45;14.68;;;10.88;;
21162;SDS011;10739;52.198;20.908;2023-04-08T07:00:12;15.60;;;10.77;;
21162;SDS011;10739;52.198;20.908;2023-04-08T07:02:38;17.80;;;10.75;;
21162;SDS011;10739;52.198;20.908;2023-04-08T07:05:05;14.63;;;11.20;;
21162;SDS011;10739;52.198;20.908;2023-04-08T07:07:32;13.45;;;11.02;;
21162;SDS011;10739;52.198;20.908;2023-04-08T07:09:58;14.80;;;11.00;;
21162;SDS011;10739;52.198;20.908;2023-04-08T07:12:25;16.52;;;12.07;;
21162;SDS011;10739;52.198;20.908;2023-04-08T07:14:51;15.55;;;10.88;;
21162;SDS011;10739;52.198;20.908;2023-04-08T07:17:17;14.80;;;11.00;;
21162;SDS011;10739;52.198;20.908;2023-04-08T07:19:44;14.40;;;10.63;;
21162;SDS011;10739;52.198;20.908;2023-04-08T07:22:10;12.85;;;9.90;;
21162;SDS011;10739;52.198;20.908;2023-04-08T07:24:36;10.43;;;8.40;;
21162;SDS011;10739;52.198;20.908;2023-04-08T07:27:03;11.82;;;9.07;;
21162;SDS011;10739;52.198;20.908;2023-04-08T07:29:29;12.05;;;9.75;;
21162;SDS011;10739;52.198;20.908;2023-04-08T07:31:55;9.65;;;8.60;;
21162;SDS011;10739;52.198;20.908;2023-04-08T07:34:22;9.82;;;8.20;;
21162;SDS011;10739;52.198;20.908;2023-04-08T07:36:48;10.88;;;8.68;;
21162;SDS011;10739;52.198;20.908;2023-04-08T07:39:15;10.50;;;8.57;;
21162;SDS011;10739;52.198;20.908;2023-04-08T07:41:41;8.75;;;7.72;;
21162;SDS011;10739;52.198;20.908;2023-04-08T07:44:07;11.15;;;8.50;;
21162;SDS011;10739;52.198;20.908;2023-04-08T07:46:36;11.25;;;8.25;;
21162;SDS011;10739;52.198;20.908;2023-04-08T07:49:03;11.20;;;7.90;;
21162;SDS011;10739;52.198;20.908;2023-04-08T07:51:29;13.98;;;8.88;;
21162;SDS011;10739;52.198;20.908;2023-04-08T07:53:56;11.48;;;9.13;;
21162;SDS011;10739;52.198;20.908;2023-04-08T07:56:22;12.00;;;8.85;;
21162;SDS011;10739;52.198;20.908;2023-04-08T07:58:48;10.77;;;9.05;;
21162;SDS011;10739;52.198;20.908;2023-04-08T08:01:15;10.13;;;8.23;;
21162;SDS011;10739;52.198;20.908;2023-04-08T08:03:47;13.50;;;9.10;;
21162;SDS011;10739;52.198;20.908;2023-04-08T08:06:15;11.65;;;8.68;;
21162;SDS011;10739;52.198;20.908;2023-04-08T08:08:42;12.32;;;8.32;;
21162;SDS011;10739;52.198;20.908;2023-04-08T08:11:09;9.77;;;7.75;;
21162;SDS011;10739;52.198;20.908;2023-04-08T08:13:35;11.95;;;8.70;;
21162;SDS011;10739;52.198;20.908;2023-04-08T08:16:01;11.05;;;8.55;;
21162;SDS011;10739;52.198;20.908;2023-04-08T08:18:28;13.43;;;9.07;;
21162;SDS011;10739;52.198;20.908;2023-04-08T08:20:54;10.32;;;7.75;;
21162;SDS011;10739;52.198;20.908;2023-04-08T08:23:20;11.40;;;8.23;;
21162;SDS011;10739;52.198;20.908;2023-04-08T08:25:47;11.80;;;8.77;;
21162;SDS011;10739;52.198;20.908;2023-04-08T08:28:13;13.93;;;8.85;;
21162;SDS011;10739;52.198;20.908;2023-04-08T08:30:40;9.50;;;8.50;;
21162;SDS011;10739;52.198;20.908;2023-04-08T08:33:06;10.85;;;8.43;;
21162;SDS011;10739;52.198;20.908;2023-04-08T08:35:32;9.88;;;8.00;;
21162;SDS011;10739;52.198;20.908;2023-04-08T08:37:58;10.15;;;8.48;;
21162;SDS011;10739;52.198;20.908;2023-04-08T08:40:25;9.52;;;8.30;;
21162;SDS011;10739;52.198;20.908;2023-04-08T08:42:51;10.55;;;9.27;;
21162;SDS011;10739;52.198;20.908;2023-04-08T08:45:19;13.07;;;8.57;;
21162;SDS011;10739;52.198;20.908;2023-04-08T08:47:45;10.63;;;9.52;;
21162;SDS011;10739;52.198;20.908;2023-04-08T08:50:12;10.68;;;8.73;;
21162;SDS011;10739;52.198;20.908;2023-04-08T08:52:38;10.65;;;8.55;;
21162;SDS011;10739;52.198;20.908;2023-04-08T08:55:14;9.30;;;8.23;;
21162;SDS011;10739;52.198;20.908;2023-04-08T08:57:44;11.48;;;8.98;;
21162;SDS011;10739;52.198;20.908;2023-04-08T09:00:11;10.95;;;8.68;;
21162;SDS011;10739;52.198;20.908;2023-04-08T09:02:40;10.88;;;8.63;;
21162;SDS011;10739;52.198;20.908;2023-04-08T09:05:06;10.48;;;8.70;;
21162;SDS011;10739;52.198;20.908;2023-04-08T09:07:36;9.07;;;8.15;;
21162;SDS011;10739;52.198;20.908;2023-04-08T09:10:07;10.00;;;8.23;;
21162;SDS011;10739;52.198;20.908;2023-04-08T09:12:35;10.15;;;8.63;;
21162;SDS011;10739;52.198;20.908;2023-04-08T09:15:20;11.13;;;8.00;;
21162;SDS011;10739;52.198;20.908;2023-04-08T09:17:46;9.82;;;8.02;;
21162;SDS011;10739;52.198;20.908;2023-04-08T09:20:12;10.38;;;8.35;;
21162;SDS011;10739;52.198;20.908;2023-04-08T09:25:27;8.98;;;8.07;;
21162;SDS011;10739;52.198;20.908;2023-04-08T09:27:58;11.68;;;8.82;;
21162;SDS011;10739;52.198;20.908;2023-04-08T09:30:27;8.82;;;7.88;;
21162;SDS011;10739;52.198;20.908;2023-04-08T09:32:54;8.80;;;7.90;;
21162;SDS011;10739;52.198;20.908;2023-04-08T09:35:22;9.13;;;8.20;;
21162;SDS011;10739;52.198;20.908;2023-04-08T09:37:49;10.57;;;8.88;;
21162;SDS011;10739;52.198;20.908;2023-04-08T09:40:16;10.60;;;9.13;;
21162;SDS011;10739;52.198;20.908;2023-04-08T09:42:44;11.65;;;8.32;;
21162;SDS011;10739;52.198;20.908;2023-04-08T09:45:15;10.80;;;8.65;;
21162;SDS011;10739;52.198;20.908;2023-04-08T09:50:30;11.10;;;8.85;;
21162;SDS011;10739;52.198;20.908;2023-04-08T09:53:40;10.50;;;8.68;;
21162;SDS011;10739;52.198;20.908;2023-04-08T09:56:06;8.95;;;7.47;;
21162;SDS011;10739;52.198;20.908;2023-04-08T09:58:53;8.50;;;7.63;;
21162;SDS011;10739;52.198;20.908;2023-04-08T10:01:36;8.77;;;7.88;;
21162;SDS011;10739;52.198;20.908;2023-04-08T10:04:06;10.53;;;7.93;;
21162;SDS011;10739;52.198;20.908;2023-04-08T10:06:36;8.30;;;7.50;;
21162;SDS011;10739;52.198;20.908;2023-04-08T10:09:05;13.13;;;7.22;;
21162;SDS011;10739;52.198;20.908;2023-04-08T10:11:32;10.98;;;7.78;;
21162;SDS011;10739;52.198;20.908;2023-04-08T10:14:00;7.68;;;6.88;;
21162;SDS011;10739;52.198;20.908;2023-04-08T10:16:27;8.55;;;7.75;;
21162;SDS011;10739;52.198;20.908;2023-04-08T10:18:54;8.07;;;7.28;;
21162;SDS011;10739;52.198;20.908;2023-04-08T10:21:37;8.07;;;7.28;;
21162;SDS011;10739;52.198;20.908;2023-04-08T10:24:12;9.02;;;7.07;;
21162;SDS011;10739;52.198;20.908;2023-04-08T10:26:43;7.60;;;6.82;;
21162;SDS011;10739;52.198;20.908;2023-04-08T10:31:51;7.60;;;6.90;;
21162;SDS011;10739;52.198;20.908;2023-04-08T10:34:18;7.38;;;6.60;;
21162;SDS011;10739;52.198;20.908;2023-04-08T10:36:49;10.43;;;7.65;;
21162;SDS011;10739;52.198;20.908;2023-04-08T10:39:15;7.88;;;7.07;;
21162;SDS011;10739;52.198;20.908;2023-04-08T10:41:48;7.47;;;6.80;;
21162;SDS011;10739;52.198;20.908;2023-04-08T10:44:16;8.55;;;7.28;;
21162;SDS011;10739;52.198;20.908;2023-04-08T10:46:45;9.18;;;5.63;;
21162;SDS011;10739;52.198;20.908;2023-04-08T10:49:13;7.10;;;6.40;;
21162;SDS011;10739;52.198;20.908;2023-04-08T10:51:41;7.53;;;6.78;;
21162;SDS011;10739;52.198;20.908;2023-04-08T10:54:09;7.88;;;6.97;;
21162;SDS011;10739;52.198;20.908;2023-04-08T10:56:48;8.57;;;6.80;;
21162;SDS011;10739;52.198;20.908;2023-04-08T10:59:30;7.40;;;6.63;;
21162;SDS011;10739;52.198;20.908;2023-04-08T11:01:57;8.82;;;6.00;;
21162;SDS011;10739;52.198;20.908;2023-04-08T11:04:24;6.68;;;6.00;;
21162;SDS011;10739;52.198;20.908;2023-04-08T11:06:51;7.45;;;5.57;;
21162;SDS011;10739;52.198;20.908;2023-04-08T11:09:18;6.68;;;6.07;;
21162;SDS011;10739;52.198;20.908;2023-04-08T11:11:44;7.63;;;6.50;;
21162;SDS011;10739;52.198;20.908;2023-04-08T11:14:11;6.75;;;6.05;;
21162;SDS011;10739;52.198;20.908;2023-04-08T11:16:41;6.78;;;6.15;;
21162;SDS011;10739;52.198;20.908;2023-04-08T11:19:07;6.85;;;5.97;;
21162;SDS011;10739;52.198;20.908;2023-04-08T11:21:34;7.95;;;5.60;;
21162;SDS011;10739;52.198;20.908;2023-04-08T11:24:09;7.55;;;5.90;;
21162;SDS011;10739;52.198;20.908;2023-04-08T11:26:49;6.28;;;5.53;;
21162;SDS011;10739;52.198;20.908;2023-04-08T11:29:16;10.50;;;6.32;;
21162;SDS011;10739;52.198;20.908;2023-04-08T11:31:42;6.80;;;5.72;;
21162;SDS011;10739;52.198;20.908;2023-04-08T11:34:09;6.47;;;5.85;;
21162;SDS011;10739;52.198;20.908;2023-04-08T11:36:38;7.75;;;6.95;;
21162;SDS011;10739;52.198;20.908;2023-04-08T11:39:06;7.97;;;7.07;;
21162;SDS011;10739;52.198;20.908;2023-04-08T11:41:35;7.35;;;6.57;;
21162;SDS011;10739;52.198;20.908;2023-04-08T11:44:03;6.82;;;6.00;;
21162;SDS011;10739;52.198;20.908;2023-04-08T11:46:31;7.82;;;6.82;;
21162;SDS011;10739;52.198;20.908;2023-04-08T11:49:05;6.82;;;6.15;;
21162;SDS011;10739;52.198;20.908;2023-04-08T11:51:51;7.70;;;6.38;;
21162;SDS011;10739;52.198;20.908;2023-04-08T11:54:28;8.73;;;5.57;;
21162;SDS011;10739;52.198;20.908;2023-04-08T11:56:57;9.07;;;5.93;;
21162;SDS011;10739;52.198;20.908;2023-04-08T11:59:24;6.78;;;5.88;;
21162;SDS011;10739;52.198;20.908;2023-04-08T12:01:51;7.03;;;5.85;;
21162;SDS011;10739;52.198;20.908;2023-04-08T12:04:18;6.07;;;5.47;;
21162;SDS011;10739;52.198;20.908;2023-04-08T12:06:44;6.20;;;5.60;;
21162;SDS011;10739;52.198;20.908;2023-04-08T12:09:12;6.00;;;5.40;;
21162;SDS011;10739;52.198;20.908;2023-04-08T12:11:38;6.43;;;5.50;;
21162;SDS011;10739;52.198;20.908;2023-04-08T12:14:05;6.65;;;5.63;;
21162;SDS011;10739;52.198;20.908;2023-04-08T12:16:31;6.55;;;5.75;;
21162;SDS011;10739;52.198;20.908;2023-04-08T12:18:58;6.32;;;5.00;;
21162;SDS011;10739;52.198;20.908;2023-04-08T12:21:24;5.28;;;4.78;;
21162;SDS011;10739;52.198;20.908;2023-04-08T12:23:52;6.70;;;5.13;;
21162;SDS011;10739;52.198;20.908;2023-04-08T12:26:18;5.13;;;4.63;;
21162;SDS011;10739;52.198;20.908;2023-04-08T12:28:45;5.28;;;4.32;;
21162;SDS011;10739;52.198;20.908;2023-04-08T12:31:11;6.00;;;4.60;;
21162;SDS011;10739;52.198;20.908;2023-04-08T12:33:37;5.25;;;4.75;;
21162;SDS011;10739;52.198;20.908;2023-04-08T12:36:04;6.90;;;5.10;;
21162;SDS011;10739;52.198;20.908;2023-04-08T12:38:30;5.80;;;5.20;;
21162;SDS011;10739;52.198;20.908;2023-04-08T12:40:57;4.82;;;4.35;;
21162;SDS011;10739;52.198;20.908;2023-04-08T12:43:24;5.55;;;5.05;;
21162;SDS011;10739;52.198;20.908;2023-04-08T12:45:50;7.35;;;4.80;;
21162;SDS011;10739;52.198;20.908;2023-04-08T12:48:17;5.43;;;4.30;;
21162;SDS011;10739;52.198;20.908;2023-04-08T12:50:43;4.90;;;4.40;;
21162;SDS011;10739;52.198;20.908;2023-04-08T12:53:09;6.22;;;5.38;;
21162;SDS011;10739;52.198;20.908;2023-04-08T12:55:36;8.70;;;4.85;;
21162;SDS011;10739;52.198;20.908;2023-04-08T12:58:02;5.80;;;5.20;;
21162;SDS011;10739;52.198;20.908;2023-04-08T13:00:30;5.10;;;4.60;;
21162;SDS011;10739;52.198;20.908;2023-04-08T13:02:56;5.28;;;4.78;;
21162;SDS011;10739;52.198;20.908;2023-04-08T13:05:22;6.35;;;5.75;;
21162;SDS011;10739;52.198;20.908;2023-04-08T13:07:49;5.43;;;4.45;;
21162;SDS011;10739;52.198;20.908;2023-04-08T13:10:15;6.78;;;5.18;;
21162;SDS011;10739;52.198;20.908;2023-04-08T13:12:41;7.35;;;4.88;;
21162;SDS011;10739;52.198;20.908;2023-04-08T13:15:08;5.63;;;4.47;;
21162;SDS011;10739;52.198;20.908;2023-04-08T13:17:35;5.30;;;4.80;;
21162;SDS011;10739;52.198;20.908;2023-04-08T13:20:01;4.93;;;4.50;;
21162;SDS011;10739;52.198;20.908;2023-04-08T13:22:27;6.10;;;4.63;;
21162;SDS011;10739;52.198;20.908;2023-04-08T13:24:54;5.63;;;4.28;;
21162;SDS011;10739;52.198;20.908;2023-04-08T13:27:21;4.45;;;3.92;;
21162;SDS011;10739;52.198;20.908;2023-04-08T13:29:47;4.90;;;4.50;;
21162;SDS011;10739;52.198;20.908;2023-04-08T13:32:13;4.72;;;4.28;;
21162;SDS011;10739;52.198;20.908;2023-04-08T13:34:40;4.63;;;4.22;;
21162;SDS011;10739;52.198;20.908;2023-04-08T13:37:06;5.45;;;4.55;;
21162;SDS011;10739;52.198;20.908;2023-04-08T13:39:33;5.18;;;4.68;;
21162;SDS011;10739;52.198;20.908;2023-04-08T13:41:59;7.20;;;5.20;;
21162;SDS011;10739;52.198;20.908;2023-04-08T13:44:27;6.22;;;4.85;;
21162;SDS011;10739;52.198;20.908;2023-04-08T13:46:53;5.53;;;4.57;;
21162;SDS011;10739;52.198;20.908;2023-04-08T13:49:19;5.88;;;4.82;;
21162;SDS011;10739;52.198;20.908;2023-04-08T13:51:46;4.32;;;3.92;;
21162;SDS011;10739;52.198;20.908;2023-04-08T13:54:12;5.00;;;4.45;;
21162;SDS011;10739;52.198;20.908;2023-04-08T13:56:38;5.75;;;4.45;;
21162;SDS011;10739;52.198;20.908;2023-04-08T13:59:05;5.50;;;4.57;;
21162;SDS011;10739;52.198;20.908;2023-04-08T14:01:31;6.07;;;5.00;;
21162;SDS011;10739;52.198;20.908;2023-04-08T14:03:57;5.32;;;4.82;;
21162;SDS011;10739;52.198;20.908;2023-04-08T14:06:24;5.32;;;4.75;;
21162;SDS011;10739;52.198;20.908;2023-04-08T14:08:51;5.15;;;4.65;;
21162;SDS011;10739;52.198;20.908;2023-04-08T14:11:18;9.43;;;5.30;;
21162;SDS011;10739;52.198;20.908;2023-04-08T14:13:45;5.95;;;5.35;;
21162;SDS011;10739;52.198;20.908;2023-04-08T14:16:12;5.40;;;4.90;;
21162;SDS011;10739;52.198;20.908;2023-04-08T14:18:38;5.28;;;4.72;;
21162;SDS011;10739;52.198;20.908;2023-04-08T14:21:04;5.88;;;4.90;;
21162;SDS011;10739;52.198;20.908;2023-04-08T14:23:31;8.00;;;6.28;;
21162;SDS011;10739;52.198;20.908;2023-04-08T14:25:57;7.97;;;5.53;;
21162;SDS011;10739;52.198;20.908;2023-04-08T14:28:26;6.28;;;5.25;;
21162;SDS011;10739;52.198;20.908;2023-04-08T14:30:53;6.22;;;5.13;;
21162;SDS011;10739;52.198;20.908;2023-04-08T14:33:20;7.05;;;5.72;;